createdAt,value
2022-09-12T00:00:52.209Z,0.85
2022-09-12T00:05:51.212Z,0.85
2022-09-12T00:10:51.468Z,0.70
2022-09-12T00:15:50.725Z,0.80
2022-09-12T00:20:49.679Z,0.80
2022-09-12T00:25:49.676Z,0.70
2022-09-12T00:30:50.578Z,0.77
2022-09-12T00:35:53.238Z,0.88
2022-09-12T00:40:52.247Z,0.82
2022-09-12T00:45:52.834Z,1.15
2022-09-12T00:50:52.166Z,0.85
2022-09-12T00:55:53.429Z,0.50
2022-09-12T01:00:54.037Z,0.60
2022-09-12T01:06:02.745Z,0.63
2022-09-12T01:11:01.711Z,0.70
2022-09-12T01:16:04.082Z,0.82
2022-09-12T01:21:17.192Z,0.80
2022-09-12T01:26:42.426Z,0.88
2022-09-12T01:31:50.928Z,0.77
2022-09-12T01:36:59.076Z,0.90
2022-09-12T01:42:11.436Z,0.70
2022-09-12T01:52:16.791Z,0.90
2022-09-12T01:57:21.803Z,0.60
2022-09-12T02:02:27.401Z,0.60
2022-09-12T02:07:30.679Z,0.65
2022-09-12T02:12:38.090Z,0.50
2022-09-12T02:17:42.130Z,0.70
2022-09-12T02:22:42.755Z,0.80
2022-09-12T02:27:46.956Z,0.80
2022-09-12T02:32:58.198Z,0.80
2022-09-12T02:38:03.455Z,0.80
2022-09-12T02:43:04.348Z,0.93
2022-09-12T02:48:13.310Z,0.80
2022-09-12T02:53:12.973Z,0.73
2022-09-12T02:58:16.287Z,0.70
2022-09-12T03:03:31.110Z,0.70
2022-09-12T03:08:51.681Z,1.00
2022-09-12T03:14:02.009Z,0.90
2022-09-12T03:19:11.398Z,0.82
2022-09-12T03:24:17.834Z,1.00
2022-09-12T03:29:19.182Z,1.45
2022-09-12T03:34:20.018Z,0.90
2022-09-12T03:39:19.515Z,1.00
2022-09-12T03:44:18.597Z,0.90
2022-09-12T03:49:17.761Z,0.90
2022-09-12T03:54:25.421Z,1.00
2022-09-12T03:59:24.267Z,0.95
2022-09-12T04:04:23.133Z,0.90
2022-09-12T04:09:23.402Z,1.23
2022-09-12T04:14:22.235Z,1.52
2022-09-12T04:19:21.232Z,1.20
2022-09-12T04:24:20.133Z,1.17
2022-09-12T04:29:20.703Z,1.63
2022-09-12T04:34:19.634Z,1.25
2022-09-12T04:39:19.898Z,1.30
2022-09-12T04:44:20.623Z,1.35
2022-09-12T04:49:19.864Z,1.30
2022-09-12T04:54:20.789Z,1.45
2022-09-12T04:59:23.729Z,1.73
2022-09-12T05:04:22.874Z,1.50
2022-09-12T05:09:21.956Z,1.30
2022-09-12T05:14:22.258Z,1.05
2022-09-12T05:19:21.054Z,1.15
2022-09-12T05:24:19.912Z,1.10
2022-09-12T05:29:19.104Z,1.45
2022-09-12T05:34:19.471Z,1.25
2022-09-12T05:39:18.731Z,1.20
2022-09-12T05:44:17.822Z,1.42
2022-09-12T05:49:16.692Z,1.00
2022-09-12T05:54:19.558Z,1.50
2022-09-12T05:59:20.688Z,0.90
2022-09-12T06:04:19.452Z,1.00
2022-09-12T06:09:19.848Z,0.82
2022-09-12T06:14:19.607Z,1.40
2022-09-12T06:19:19.971Z,1.00
2022-09-12T06:24:21.455Z,1.10
2022-09-12T06:29:21.186Z,1.00
2022-09-12T06:34:20.085Z,0.88
2022-09-12T06:39:21.845Z,0.90
2022-09-12T06:44:23.101Z,1.48
2022-09-12T06:49:21.971Z,0.95
2022-09-12T06:54:23.751Z,1.05
2022-09-12T06:59:23.026Z,1.08
2022-09-12T07:04:22.192Z,0.85
2022-09-12T07:09:26.559Z,1.20
2022-09-12T07:14:28.510Z,1.20
2022-09-12T07:19:32.432Z,1.70
2022-09-12T07:24:32.578Z,0.98
2022-09-12T07:29:38.532Z,0.90
2022-09-12T07:34:37.900Z,1.17
2022-09-12T07:39:38.866Z,1.25
2022-09-12T07:44:38.891Z,1.45
2022-09-12T07:49:37.994Z,1.02
2022-09-12T07:54:38.480Z,1.17
2022-09-12T07:59:52.541Z,1.00
2022-09-12T08:04:52.961Z,0.60
2022-09-12T08:09:53.721Z,1.25
2022-09-12T08:14:52.506Z,0.80
2022-09-12T08:19:53.447Z,0.47
2022-09-12T08:24:54.032Z,1.03
2022-09-12T08:29:53.852Z,0.80
2022-09-12T08:34:52.550Z,0.88
2022-09-12T08:39:52.846Z,1.35
2022-09-12T08:45:07.923Z,0.88
2022-09-12T08:50:16.556Z,0.90
2022-09-12T08:55:26.954Z,1.13
2022-09-12T09:00:32.329Z,1.10
2022-09-12T09:05:44.673Z,1.00
2022-09-12T09:10:50.420Z,1.10
2022-09-12T09:16:00.207Z,1.00
2022-09-12T09:21:03.920Z,0.73
2022-09-12T09:26:07.947Z,1.10
2022-09-12T09:31:15.777Z,0.80
2022-09-12T09:36:22.526Z,1.10
2022-09-12T09:41:44.102Z,1.00
2022-09-12T09:46:44.700Z,0.60
2022-09-12T09:51:44.169Z,0.52
2022-09-12T09:56:44.399Z,0.50
2022-09-12T10:01:49.433Z,1.33
2022-09-12T10:06:48.545Z,0.50
2022-09-12T10:11:48.132Z,0.52
2022-09-12T10:16:53.661Z,0.40
2022-09-12T10:21:54.663Z,0.40
2022-09-12T10:26:57.209Z,0.40
2022-09-12T10:32:00.763Z,0.50
2022-09-12T10:37:05.791Z,0.30
2022-09-12T10:42:06.023Z,0.40
2022-09-12T10:47:24.738Z,0.40
2022-09-12T10:52:25.149Z,0.52
2022-09-12T10:57:54.629Z,0.40
2022-09-12T11:03:00.274Z,0.25
2022-09-12T11:08:09.331Z,0.40
2022-09-12T11:13:24.540Z,0.50
2022-09-12T11:18:38.280Z,0.47
2022-09-12T11:23:57.959Z,0.40
2022-09-12T11:29:07.842Z,0.40
2022-09-12T11:34:10.889Z,0.40
2022-09-12T11:39:16.110Z,0.60
2022-09-12T11:44:20.833Z,0.60
2022-09-12T11:49:30.497Z,0.20
2022-09-12T11:54:37.598Z,0.30
2022-09-12T11:59:45.575Z,0.65
2022-09-12T12:05:23.599Z,0.30
2022-09-12T12:10:37.411Z,0.50
2022-09-12T12:15:40.662Z,0.50
2022-09-12T12:20:41.099Z,0.30
2022-09-12T12:25:52.975Z,0.60
2022-09-12T12:31:11.378Z,0.50
2022-09-12T12:36:29.901Z,0.40
2022-09-12T12:41:47.404Z,0.50
2022-09-12T12:47:10.987Z,0.30
2022-09-12T12:52:19.797Z,0.40
2022-09-12T12:57:24.206Z,0.40
2022-09-12T13:02:28.873Z,0.45
2022-09-12T13:07:34.117Z,0.60
2022-09-12T13:12:36.972Z,0.60
2022-09-12T13:17:41.051Z,0.40
2022-09-12T13:22:43.670Z,0.20
2022-09-12T13:27:57.229Z,0.45
2022-09-12T13:32:58.963Z,0.40
2022-09-12T13:38:18.904Z,0.50
2022-09-12T13:43:23.220Z,0.70
2022-09-12T13:48:26.286Z,0.40
2022-09-12T13:53:30.337Z,0.50
2022-09-12T13:58:31.299Z,0.40
2022-09-12T14:03:49.896Z,0.52
2022-09-12T14:08:50.429Z,0.73
2022-09-12T14:13:49.311Z,0.60
2022-09-12T14:18:50.160Z,1.15
2022-09-12T14:23:51.037Z,0.55
2022-09-12T14:28:50.568Z,0.65
2022-09-12T14:33:54.304Z,0.40
2022-09-12T14:38:58.913Z,0.43
2022-09-12T14:44:01.454Z,0.55
2022-09-12T14:49:03.772Z,0.40
2022-09-12T14:54:04.455Z,0.47
2022-09-12T14:59:36.803Z,0.45
2022-09-12T15:04:42.944Z,0.63
2022-09-12T15:09:47.264Z,0.70
2022-09-12T15:14:53.447Z,0.77
2022-09-12T15:19:53.242Z,0.70
2022-09-12T15:24:53.794Z,0.60
2022-09-12T15:29:52.656Z,1.02
2022-09-12T15:34:51.503Z,1.00
2022-09-12T15:39:50.900Z,2.42
2022-09-12T15:44:51.163Z,3.10
2022-09-12T15:49:50.378Z,2.80
2022-09-12T15:54:53.643Z,2.63
2022-09-12T16:00:16.665Z,3.92
2022-09-12T16:05:21.437Z,2.70
2022-09-12T16:10:23.076Z,3.55
2022-09-12T16:15:25.381Z,1.90
2022-09-12T16:20:24.509Z,4.05
2022-09-12T16:25:23.496Z,1.55
2022-09-12T16:30:23.834Z,4.90
2022-09-12T16:35:24.815Z,0.93
2022-09-12T16:40:23.719Z,0.80
2022-09-12T16:45:24.107Z,2.15
2022-09-12T16:50:23.061Z,1.50
2022-09-12T16:55:22.431Z,5.55
2022-09-12T17:00:21.609Z,1.60
2022-09-12T17:05:21.920Z,2.35
2022-09-12T17:10:21.058Z,2.88
2022-09-12T17:15:20.001Z,2.05
2022-09-12T17:20:19.012Z,2.67
2022-09-12T17:25:19.328Z,2.40
2022-09-12T17:30:18.410Z,2.08
2022-09-12T17:35:17.377Z,2.85
2022-09-12T17:40:16.514Z,1.80
2022-09-12T17:45:18.586Z,1.38
2022-09-12T17:50:31.193Z,1.08
2022-09-12T17:55:32.204Z,1.58
2022-09-12T18:00:50.615Z,3.00
2022-09-12T18:05:49.876Z,1.27
2022-09-12T18:10:48.742Z,1.13
2022-09-12T18:15:49.088Z,2.63
2022-09-12T18:20:51.794Z,1.58
2022-09-12T18:25:50.644Z,1.50
2022-09-12T18:30:50.871Z,2.38
2022-09-12T18:35:49.801Z,1.58
2022-09-12T18:40:49.297Z,0.80
2022-09-12T18:46:07.279Z,1.00
2022-09-12T18:51:08.312Z,1.20
2022-09-12T18:56:09.574Z,1.55
2022-09-12T19:01:14.636Z,1.50
2022-09-12T19:06:17.722Z,2.97
2022-09-12T19:11:17.393Z,1.98
2022-09-12T19:16:23.978Z,1.63
2022-09-12T19:21:24.664Z,1.90
2022-09-12T19:26:23.595Z,2.67
2022-09-12T19:31:24.699Z,2.65
2022-09-12T19:41:42.730Z,4.45
2022-09-12T19:46:43.550Z,2.28
2022-09-12T19:51:42.855Z,1.70
2022-09-12T19:56:41.742Z,1.77
2022-09-12T20:01:40.833Z,1.73
2022-09-12T20:06:41.559Z,2.40
2022-09-12T20:11:40.333Z,2.10
2022-09-12T20:16:39.102Z,2.17
2022-09-12T20:21:38.293Z,1.98
2022-09-12T20:26:38.797Z,2.80
2022-09-12T20:31:39.516Z,2.30
2022-09-12T20:36:38.344Z,1.80
2022-09-12T20:41:38.429Z,1.60
2022-09-12T20:46:37.547Z,2.13
2022-09-12T20:51:37.108Z,1.85
2022-09-12T20:56:38.696Z,1.45
2022-09-12T21:01:37.841Z,1.25
2022-09-12T21:06:36.904Z,1.85
2022-09-12T21:11:35.777Z,1.63
2022-09-12T21:16:38.756Z,1.80
2022-09-12T21:21:38.065Z,1.98
2022-09-12T21:26:37.072Z,1.88
2022-09-12T21:32:31.145Z,1.80
2022-09-12T21:38:00.120Z,1.48
2022-09-12T21:42:59.190Z,1.60
2022-09-12T21:47:58.249Z,1.73
2022-09-12T21:52:56.839Z,1.83
2022-09-12T21:57:57.069Z,1.88
2022-09-12T22:02:56.331Z,1.88
2022-09-12T22:07:54.860Z,2.15
2022-09-12T22:12:53.474Z,1.50
2022-09-12T22:17:53.815Z,1.52
2022-09-12T22:23:09.642Z,2.38
2022-09-12T22:28:09.322Z,1.90
2022-09-12T22:33:10.278Z,1.63
2022-09-12T22:38:09.142Z,1.67
2022-09-12T22:43:07.808Z,2.70
2022-09-12T22:48:09.217Z,2.60
2022-09-12T22:53:09.524Z,2.03
2022-09-12T22:58:08.116Z,2.25
2022-09-12T23:03:06.753Z,2.08
2022-09-12T23:08:05.282Z,2.17
2022-09-12T23:13:05.373Z,1.75
2022-09-12T23:18:05.226Z,1.58
2022-09-12T23:23:04.048Z,2.25
2022-09-12T23:28:03.011Z,2.25
2022-09-12T23:33:02.980Z,2.25
2022-09-12T23:38:01.486Z,2.35
2022-09-12T23:43:00.289Z,2.20
2022-09-12T23:47:59.683Z,2.45
2022-09-12T23:53:02.386Z,1.88
2022-09-12T23:58:08.600Z,2.00
